Time;durP1;ratioP1;P1;durP2;ratioP2;P2;SDS_P1;SDS_P2;PMS_P1;PMS_P2;Temp;Humidity;BMP_temperature;BMP_pressure;BME280_temperature;BME280_humidity;BME280_pressure;Samples;Min_cycle;Max_cycle;Signal;HPM_P1;HPM_P2
2022/02/14 00:00:47;;;;;;;8.88;3.42;;;6.10;39.70;;;;;;5136139;27;20035;-76
2022/02/14 00:03:12;;;;;;;10.27;3.42;;;6.00;39.80;;;;;;5136036;27;20019;-76
2022/02/14 00:05:38;;;;;;;8.63;3.03;;;6.00;40.00;;;;;;5136124;27;20096;-76
2022/02/14 00:08:04;;;;;;;8.25;3.35;;;6.00;40.00;;;;;;5136103;27;20424;-76
2022/02/14 00:10:29;;;;;;;5.82;2.92;;;6.00;39.90;;;;;;5136064;27;20054;-75
2022/02/14 00:12:55;;;;;;;3.72;2.75;;;5.90;39.80;;;;;;5136223;27;20439;-76
2022/02/14 00:15:21;;;;;;;5.10;3.10;;;6.00;39.80;;;;;;5117416;27;20046;-75
2022/02/14 00:17:47;;;;;;;4.60;3.10;;;5.90;39.60;;;;;;5135812;27;20372;-75
2022/02/14 00:20:12;;;;;;;12.70;3.70;;;5.90;39.50;;;;;;5135781;27;20059;-75
2022/02/14 00:22:40;;;;;;;7.15;3.33;;;5.90;39.50;;;;;;5117363;27;20015;-75
2022/02/14 00:25:06;;;;;;;7.07;2.72;;;5.90;39.10;;;;;;5135746;27;20459;-76
2022/02/14 00:27:32;;;;;;;5.65;2.85;;;5.90;38.60;;;;;;5135675;27;20031;-76
2022/02/14 00:29:58;;;;;;;6.45;2.78;;;5.80;38.20;;;;;;5135694;27;20019;-76
2022/02/14 00:32:24;;;;;;;3.90;2.55;;;5.90;38.20;;;;;;5135784;27;20030;-76
2022/02/14 00:34:51;;;;;;;5.25;2.22;;;5.80;37.90;;;;;;5135453;27;20023;-76
2022/02/14 00:37:17;;;;;;;6.00;2.53;;;5.90;36.70;;;;;;5135603;27;20030;-75
2022/02/14 00:39:43;;;;;;;8.32;2.90;;;5.90;35.80;;;;;;5135415;27;20110;-76
2022/02/14 00:42:09;;;;;;;3.78;2.20;;;6.00;35.30;;;;;;5135500;27;20065;-76
2022/02/14 00:44:35;;;;;;;5.63;2.53;;;6.00;35.20;;;;;;5135315;27;20055;-75
2022/02/14 00:47:00;;;;;;;4.50;2.00;;;6.00;33.90;;;;;;5135275;27;20035;-75
2022/02/14 00:49:26;;;;;;;3.53;2.10;;;6.10;33.50;;;;;;5135269;27;20021;-75
2022/02/14 00:51:51;;;;;;;7.00;2.10;;;6.20;33.00;;;;;;5135278;27;20022;-76
2022/02/14 00:54:17;;;;;;;6.00;2.25;;;6.20;32.90;;;;;;5116723;27;20083;-75
2022/02/14 00:56:42;;;;;;;5.13;1.75;;;6.30;32.30;;;;;;5135127;27;20027;-75
2022/02/14 00:59:08;;;;;;;3.88;2.05;;;6.30;31.70;;;;;;5135195;27;20015;-75
2022/02/14 01:01:34;;;;;;;3.30;2.05;;;6.40;32.00;;;;;;5135207;27;20027;-75
2022/02/14 01:03:59;;;;;;;4.78;1.90;;;6.40;31.20;;;;;;5116683;27;20087;-76
2022/02/14 01:06:26;;;;;;;3.22;1.85;;;6.50;30.60;;;;;;5135086;27;20030;-76
2022/02/14 01:08:52;;;;;;;4.55;1.83;;;6.50;30.40;;;;;;5134943;27;20435;-76
2022/02/14 01:11:18;;;;;;;5.07;1.95;;;6.50;30.20;;;;;;5134854;27;20023;-76
2022/02/14 01:13:44;;;;;;;1.83;1.38;;;6.60;30.10;;;;;;5134719;27;20494;-76
2022/02/14 01:16:09;;;;;;;2.70;1.60;;;6.50;29.90;;;;;;5134175;27;20121;-76
2022/02/14 01:18:35;;;;;;;5.47;1.90;;;6.50;29.80;;;;;;5134755;27;20035;-76
2022/02/14 01:21:00;;;;;;;2.42;1.67;;;6.60;29.90;;;;;;5134606;27;20040;-75
2022/02/14 01:23:26;;;;;;;3.25;1.95;;;6.60;29.80;;;;;;5134753;27;20096;-75
2022/02/14 01:25:51;;;;;;;4.75;1.80;;;6.60;29.70;;;;;;5134584;27;20475;-75
2022/02/14 01:28:17;;;;;;;4.68;1.80;;;6.60;29.80;;;;;;5134543;27;20055;-75
2022/02/14 01:30:42;;;;;;;3.10;1.85;;;6.50;29.80;;;;;;5134473;27;20023;-76
2022/02/14 01:33:08;;;;;;;4.82;1.70;;;6.50;29.80;;;;;;5134483;27;20459;-75
2022/02/14 01:35:34;;;;;;;4.75;1.88;;;6.50;29.80;;;;;;5134425;27;20523;-75
2022/02/14 01:37:59;;;;;;;4.80;1.92;;;6.50;30.00;;;;;;5134350;27;20042;-75
2022/02/14 01:40:25;;;;;;;3.35;1.85;;;6.40;30.50;;;;;;5134298;27;20580;-75
2022/02/14 01:42:50;;;;;;;5.95;2.40;;;6.40;31.20;;;;;;5134336;27;20482;-75
2022/02/14 01:45:16;;;;;;;5.50;2.10;;;6.30;31.80;;;;;;5134246;27;20424;-75
2022/02/14 01:47:42;;;;;;;5.72;2.20;;;6.30;32.00;;;;;;5134202;27;20026;-76
2022/02/14 01:50:10;;;;;;;4.97;1.70;;;6.20;32.40;;;;;;5134244;27;20020;-75
2022/02/14 01:52:36;;;;;;;4.07;2.10;;;6.10;32.90;;;;;;5134238;27;20031;-76
2022/02/14 01:55:04;;;;;;;3.17;1.95;;;6.10;33.50;;;;;;5134246;27;20019;-76
2022/02/14 01:57:30;;;;;;;3.10;1.48;;;6.10;33.80;;;;;;5134334;27;20019;-76
2022/02/14 01:59:58;;;;;;;2.90;1.85;;;6.00;32.60;;;;;;5134091;27;20046;-75
2022/02/14 02:02:24;;;;;;;3.50;1.75;;;6.00;31.90;;;;;;5133938;27;20019;-76
2022/02/14 02:04:49;;;;;;;2.75;1.70;;;6.00;31.50;;;;;;5133858;27;20031;-75
2022/02/14 02:07:15;;;;;;;4.95;1.90;;;6.00;31.60;;;;;;5133952;27;20063;-75
2022/02/14 02:09:45;;;;;;;3.22;1.88;;;6.00;32.00;;;;;;5133852;27;20020;-75
2022/02/14 02:12:23;;;;;;;3.78;1.67;;;6.00;32.30;;;;;;5133858;27;20544;-75
2022/02/14 02:14:54;;;;;;;2.72;1.80;;;5.90;32.50;;;;;;5133614;28;20092;-75
2022/02/14 02:17:22;;;;;;;3.22;1.80;;;5.90;32.70;;;;;;5133910;28;20020;-75
2022/02/14 02:19:47;;;;;;;2.85;1.83;;;5.80;32.90;;;;;;5133771;28;20096;-75
2022/02/14 02:22:13;;;;;;;3.75;1.90;;;5.80;33.00;;;;;;5134039;28;20120;-75
2022/02/14 02:24:54;;;;;;;4.93;2.10;;;5.80;33.30;;;;;;5133815;28;20427;-75
2022/02/14 02:27:21;;;;;;;2.85;1.67;;;5.70;33.10;;;;;;5135097;27;20027;-75
2022/02/14 02:29:47;;;;;;;2.78;1.67;;;5.70;33.30;;;;;;5137893;27;20494;-75
2022/02/14 02:32:14;;;;;;;5.00;1.98;;;5.70;33.40;;;;;;5138041;27;20478;-74
2022/02/14 02:34:41;;;;;;;5.63;2.25;;;5.70;33.70;;;;;;5137763;27;20072;-74
2022/02/14 02:37:09;;;;;;;7.65;1.80;;;5.60;33.60;;;;;;5119337;27;20412;-74
2022/02/14 02:39:36;;;;;;;2.65;2.00;;;5.70;33.30;;;;;;5137709;27;20023;-74
2022/02/14 02:42:04;;;;;;;2.85;1.45;;;5.70;32.90;;;;;;5137722;27;20027;-75
2022/02/14 02:44:32;;;;;;;5.18;2.08;;;5.70;33.00;;;;;;5137789;27;20015;-75
2022/02/14 02:46:59;;;;;;;4.22;1.60;;;5.70;32.90;;;;;;5137640;27;20034;-76
2022/02/14 02:49:25;;;;;;;4.35;2.00;;;5.70;32.70;;;;;;5137604;27;20540;-74
2022/02/14 02:51:51;;;;;;;3.38;1.70;;;5.60;32.80;;;;;;5137529;27;20019;-75
2022/02/14 02:54:18;;;;;;;3.22;2.03;;;5.60;32.50;;;;;;5137552;27;20382;-75
2022/02/14 02:56:46;;;;;;;3.58;1.80;;;5.60;32.10;;;;;;5137339;27;20463;-75
2022/02/14 02:59:12;;;;;;;4.40;1.60;;;5.70;32.10;;;;;;5137388;27;20053;-75
2022/02/14 03:01:38;;;;;;;2.88;1.70;;;5.70;31.80;;;;;;5137320;27;20038;-75
2022/02/14 03:04:06;;;;;;;2.90;1.83;;;5.70;31.60;;;;;;5137330;27;20019;-75
2022/02/14 03:06:32;;;;;;;2.67;1.38;;;5.70;31.90;;;;;;5118762;27;20046;-76
2022/02/14 03:08:58;;;;;;;3.33;1.85;;;5.70;31.80;;;;;;5137257;27;20523;-75
2022/02/14 03:11:24;;;;;;;2.67;1.73;;;5.70;31.90;;;;;;5137243;27;20474;-75
2022/02/14 03:13:51;;;;;;;3.20;1.73;;;5.70;31.90;;;;;;5137057;27;20023;-75
2022/02/14 03:16:18;;;;;;;5.82;1.85;;;5.70;32.00;;;;;;5136991;27;20041;-75
2022/02/14 03:18:44;;;;;;;3.08;1.98;;;5.70;32.00;;;;;;5137058;27;20428;-75
2022/02/14 03:21:10;;;;;;;5.10;1.50;;;5.70;32.10;;;;;;5136950;27;20042;-75
2022/02/14 03:23:36;;;;;;;4.10;1.70;;;5.60;32.30;;;;;;5136956;27;20466;-75
2022/02/14 03:26:02;;;;;;;4.28;1.95;;;5.70;32.60;;;;;;5136825;27;20160;-75
2022/02/14 03:28:28;;;;;;;5.35;2.35;;;5.80;32.70;;;;;;5136960;27;20481;-75
2022/02/14 03:30:54;;;;;;;2.95;1.88;;;5.80;32.70;;;;;;5136765;27;20023;-75
2022/02/14 03:33:20;;;;;;;4.60;2.00;;;5.90;33.10;;;;;;5136745;27;20094;-75
2022/02/14 03:35:46;;;;;;;2.70;1.75;;;6.00;33.10;;;;;;5136752;27;20153;-75
2022/02/14 03:38:12;;;;;;;2.03;1.52;;;6.10;33.70;;;;;;5136162;27;20023;-75
2022/02/14 03:40:38;;;;;;;4.15;2.13;;;6.10;33.40;;;;;;5136587;27;20122;-75
2022/02/14 03:43:10;;;;;;;4.70;1.90;;;6.30;33.80;;;;;;5136596;27;20019;-75
2022/02/14 03:45:37;;;;;;;2.72;1.80;;;6.50;33.90;;;;;;5136519;27;20023;-76
2022/02/14 03:48:03;;;;;;;4.20;2.03;;;6.60;33.90;;;;;;5136457;27;20367;-75
2022/02/14 03:50:29;;;;;;;3.55;1.98;;;6.70;33.90;;;;;;5136499;27;20027;-75
2022/02/14 03:52:55;;;;;;;4.50;1.85;;;6.80;33.80;;;;;;5136357;27;20019;-74
2022/02/14 03:55:23;;;;;;;3.38;2.00;;;6.90;33.50;;;;;;5136329;27;20027;-75
2022/02/14 03:57:50;;;;;;;4.00;2.30;;;7.00;33.20;;;;;;5136258;27;20072;-75
2022/02/14 04:00:18;;;;;;;5.95;1.98;;;7.00;33.10;;;;;;5117825;27;20111;-75
2022/02/14 04:02:44;;;;;;;5.07;1.90;;;7.10;32.90;;;;;;5136153;27;20019;-74
2022/02/14 04:05:14;;;;;;;4.05;1.90;;;7.00;32.80;;;;;;5136203;27;20026;-74
2022/02/14 04:07:40;;;;;;;6.07;2.33;;;7.00;32.70;;;;;;5135981;27;20031;-76
2022/02/14 04:10:08;;;;;;;3.80;2.05;;;7.00;32.80;;;;;;5117628;27;20023;-75
2022/02/14 04:12:33;;;;;;;8.40;2.25;;;7.00;32.70;;;;;;5135919;27;20023;-75
2022/02/14 04:14:59;;;;;;;6.18;2.17;;;7.00;32.60;;;;;;5135819;27;20412;-75
2022/02/14 04:17:25;;;;;;;3.38;2.10;;;7.00;33.10;;;;;;5135976;27;20483;-75
2022/02/14 04:19:52;;;;;;;3.88;2.15;;;7.00;32.20;;;;;;5135743;27;20046;-75
2022/02/14 04:22:18;;;;;;;3.55;1.85;;;7.00;32.10;;;;;;5135853;27;20072;-75
2022/02/14 04:24:43;;;;;;;5.05;2.10;;;7.10;32.30;;;;;;5135755;27;20016;-75
2022/02/14 04:27:09;;;;;;;4.25;2.38;;;7.00;32.30;;;;;;5135812;27;20133;-75
2022/02/14 04:29:34;;;;;;;4.10;2.35;;;7.00;32.50;;;;;;5135809;27;20096;-75
2022/02/14 04:32:00;;;;;;;7.88;2.38;;;7.00;32.90;;;;;;5135690;27;20027;-75
2022/02/14 04:34:26;;;;;;;7.75;2.10;;;7.00;33.10;;;;;;5135646;27;20023;-75
2022/02/14 04:36:52;;;;;;;4.43;2.05;;;7.00;33.20;;;;;;5135734;27;20015;-74
2022/02/14 04:39:19;;;;;;;6.35;2.28;;;7.10;33.30;;;;;;5135451;27;20022;-75
2022/02/14 04:41:46;;;;;;;6.35;1.92;;;7.10;33.20;;;;;;5135435;27;20035;-75
2022/02/14 04:44:11;;;;;;;4.78;2.30;;;7.10;33.30;;;;;;5135324;27;20486;-75
2022/02/14 04:46:37;;;;;;;5.47;2.05;;;7.10;33.40;;;;;;5135316;27;20031;-76
2022/02/14 04:49:07;;;;;;;5.30;2.40;;;7.10;33.40;;;;;;5135035;27;20046;-75
2022/02/14 04:51:33;;;;;;;7.72;2.25;;;7.20;33.40;;;;;;5134575;27;20030;-75
2022/02/14 04:54:01;;;;;;;5.22;1.73;;;7.10;33.60;;;;;;5116670;27;20030;-75
2022/02/14 04:56:28;;;;;;;3.83;1.65;;;7.20;33.40;;;;;;5135027;27;20048;-75
2022/02/14 04:58:54;;;;;;;7.32;2.25;;;7.10;33.50;;;;;;5135111;27;20046;-75
2022/02/14 05:01:20;;;;;;;3.78;2.30;;;7.20;33.60;;;;;;5134970;27;20035;-75
2022/02/14 05:03:46;;;;;;;4.90;2.20;;;7.20;33.40;;;;;;5134801;27;20023;-76
2022/02/14 05:06:11;;;;;;;5.00;1.92;;;7.20;33.60;;;;;;5116528;27;20026;-77
2022/02/14 05:08:39;;;;;;;7.18;1.75;;;7.10;33.80;;;;;;5134915;27;20018;-76
2022/02/14 05:11:04;;;;;;;5.25;2.10;;;7.10;34.00;;;;;;5134902;27;20019;-76
2022/02/14 05:13:30;;;;;;;7.53;2.28;;;7.20;34.10;;;;;;5134762;27;20471;-77
2022/02/14 05:15:56;;;;;;;6.70;1.92;;;7.10;34.50;;;;;;5134673;27;20076;-74
2022/02/14 05:18:21;;;;;;;5.75;2.10;;;7.10;34.70;;;;;;5134843;27;20386;-75
2022/02/14 05:20:47;;;;;;;8.98;1.98;;;7.10;34.80;;;;;;5134580;27;20027;-74
2022/02/14 05:23:12;;;;;;;7.72;2.50;;;7.10;34.80;;;;;;5134749;27;20080;-75
2022/02/14 05:25:39;;;;;;;8.02;2.25;;;7.20;34.80;;;;;;5134535;27;20019;-76
2022/02/14 05:28:09;;;;;;;6.10;2.17;;;7.20;34.80;;;;;;5134555;27;20097;-76
2022/02/14 05:30:35;;;;;;;7.25;2.35;;;7.20;34.90;;;;;;5115989;27;20035;-74
2022/02/14 05:33:01;;;;;;;8.63;2.30;;;7.10;35.10;;;;;;5134413;27;20371;-74
2022/02/14 05:35:27;;;;;;;3.50;2.30;;;7.10;35.00;;;;;;5134371;27;20030;-76
2022/02/14 05:37:53;;;;;;;6.95;2.30;;;7.00;35.00;;;;;;5134451;27;20092;-74
2022/02/14 05:40:19;;;;;;;7.45;2.40;;;7.00;35.20;;;;;;5122371;27;20042;-74
2022/02/14 05:42:45;;;;;;;8.93;2.47;;;7.00;35.20;;;;;;5144126;27;20110;-75
2022/02/14 05:45:10;;;;;;;8.45;2.90;;;7.00;35.20;;;;;;5134240;27;20059;-75
2022/02/14 05:47:36;;;;;;;4.70;2.05;;;7.00;35.10;;;;;;5134095;27;20030;-74
2022/02/14 05:50:03;;;;;;;7.60;2.10;;;7.00;35.30;;;;;;5134051;27;20059;-75
2022/02/14 05:52:29;;;;;;;9.60;2.50;;;6.90;35.60;;;;;;5133922;27;20383;-75
2022/02/14 05:54:55;;;;;;;10.38;3.08;;;7.00;35.70;;;;;;5133916;27;20031;-75
2022/02/14 05:57:21;;;;;;;8.02;2.42;;;7.00;35.50;;;;;;5133954;27;20019;-76
2022/02/14 05:59:46;;;;;;;6.38;2.70;;;6.90;35.60;;;;;;5115477;28;20625;-76
2022/02/14 06:02:13;;;;;;;6.68;2.47;;;6.90;35.80;;;;;;5133739;27;20420;-75
2022/02/14 06:04:39;;;;;;;6.05;2.35;;;6.90;35.90;;;;;;5133718;27;20023;-76
2022/02/14 06:07:04;;;;;;;4.38;1.75;;;6.90;36.10;;;;;;5115210;27;20098;-76
2022/02/14 06:09:30;;;;;;;5.22;2.60;;;6.90;36.20;;;;;;5133462;27;20420;-75
2022/02/14 06:11:59;;;;;;;6.72;2.75;;;6.90;36.60;;;;;;5133296;27;20031;-75
2022/02/14 06:14:25;;;;;;;7.97;2.10;;;6.80;36.90;;;;;;5133240;27;20034;-75
2022/02/14 06:16:51;;;;;;;7.53;2.35;;;6.90;37.30;;;;;;5114853;28;20038;-75
2022/02/14 06:19:17;;;;;;;7.43;2.30;;;6.80;37.50;;;;;;5133586;28;20022;-77
2022/02/14 06:21:43;;;;;;;4.47;2.45;;;6.90;37.80;;;;;;5133155;28;20031;-76
2022/02/14 06:24:09;;;;;;;6.55;2.30;;;6.80;37.90;;;;;;5114393;28;20023;-76
2022/02/14 06:26:34;;;;;;;7.55;2.15;;;6.80;38.20;;;;;;5133114;28;20442;-75
2022/02/14 06:29:00;;;;;;;10.93;3.33;;;6.90;38.50;;;;;;5132508;28;20015;-74
2022/02/14 06:31:26;;;;;;;8.93;2.50;;;6.90;38.80;;;;;;5133054;28;20042;-74
2022/02/14 06:33:53;;;;;;;7.47;2.72;;;6.90;39.10;;;;;;5132646;28;20093;-75
2022/02/14 06:36:19;;;;;;;4.28;2.47;;;7.00;39.10;;;;;;5114516;28;20091;-74
2022/02/14 06:38:45;;;;;;;5.90;2.65;;;6.90;39.20;;;;;;5132944;28;20429;-75
2022/02/14 06:41:10;;;;;;;9.32;2.50;;;7.00;39.10;;;;;;5132735;28;20031;-73
2022/02/14 06:43:36;;;;;;;7.80;2.63;;;7.00;39.00;;;;;;5133034;28;20512;-73
2022/02/14 06:46:02;;;;;;;6.75;2.30;;;7.00;38.90;;;;;;5132647;28;20034;-75
2022/02/14 06:48:28;;;;;;;11.15;3.13;;;7.00;38.80;;;;;;5132914;28;20061;-75
2022/02/14 06:50:54;;;;;;;8.60;2.55;;;7.00;39.40;;;;;;5133012;28;20074;-75
2022/02/14 06:53:19;;;;;;;6.72;2.47;;;7.00;39.40;;;;;;5132923;28;20015;-75
2022/02/14 06:55:45;;;;;;;7.65;2.90;;;7.00;39.30;;;;;;5132987;28;20416;-75
2022/02/14 06:58:11;;;;;;;8.90;2.67;;;7.10;39.20;;;;;;5133198;28;20095;-75
2022/02/14 07:00:36;;;;;;;7.13;2.33;;;7.10;39.30;;;;;;5133016;28;20084;-75
2022/02/14 07:03:02;;;;;;;8.57;2.67;;;7.10;39.30;;;;;;5132819;28;20116;-75
2022/02/14 07:05:28;;;;;;;6.93;3.10;;;7.20;39.00;;;;;;5133014;28;20019;-75
2022/02/14 07:07:53;;;;;;;7.00;2.50;;;7.20;38.90;;;;;;5132523;28;20129;-75
2022/02/14 07:10:20;;;;;;;8.38;2.83;;;7.10;38.90;;;;;;5132594;28;20025;-74
2022/02/14 07:12:46;;;;;;;7.65;2.65;;;7.10;38.80;;;;;;5133127;27;20035;-74
2022/02/14 07:15:13;;;;;;;5.07;2.45;;;7.10;38.80;;;;;;5136596;27;20051;-75
2022/02/14 07:17:39;;;;;;;7.20;2.28;;;7.10;38.80;;;;;;5118283;27;20019;-76
2022/02/14 07:20:05;;;;;;;7.55;2.22;;;7.10;38.70;;;;;;5136467;27;20551;-74
2022/02/14 07:22:31;;;;;;;5.07;2.38;;;7.20;38.70;;;;;;5136658;27;20102;-75
2022/02/14 07:24:56;;;;;;;8.63;2.65;;;7.20;38.70;;;;;;5136503;27;20026;-75
2022/02/14 07:27:22;;;;;;;9.50;2.72;;;7.20;38.40;;;;;;5136422;27;20157;-75
2022/02/14 07:29:47;;;;;;;8.73;2.83;;;7.30;38.40;;;;;;5136542;27;20076;-74
2022/02/14 07:32:13;;;;;;;10.50;3.03;;;7.30;38.40;;;;;;5136662;27;20030;-74
2022/02/14 07:34:39;;;;;;;8.57;2.70;;;7.30;38.10;;;;;;5136536;27;20020;-73
2022/02/14 07:37:05;;;;;;;8.32;2.30;;;7.30;38.00;;;;;;5136545;27;20027;-74
2022/02/14 07:39:32;;;;;;;6.43;2.40;;;7.20;37.70;;;;;;5136489;27;20015;-74
2022/02/14 07:41:58;;;;;;;6.03;2.63;;;7.40;37.70;;;;;;5136275;27;20027;-74
2022/02/14 07:44:24;;;;;;;8.38;2.08;;;7.30;38.00;;;;;;5136280;27;20015;-74
2022/02/14 07:46:51;;;;;;;9.63;2.60;;;7.40;38.10;;;;;;5136261;27;20126;-75
2022/02/14 07:49:21;;;;;;;12.80;2.60;;;7.40;38.20;;;;;;5136011;27;20102;-75
2022/02/14 07:51:47;;;;;;;6.38;2.58;;;7.40;38.50;;;;;;5136338;27;20098;-75
2022/02/14 07:54:14;;;;;;;5.28;2.50;;;7.50;38.40;;;;;;5136081;27;20054;-75
2022/02/14 07:56:40;;;;;;;5.97;2.65;;;7.60;38.30;;;;;;5135983;27;20349;-75
2022/02/14 07:59:06;;;;;;;6.63;2.28;;;7.60;38.10;;;;;;5117462;27;20020;-75
2022/02/14 08:01:32;;;;;;;7.68;2.60;;;7.70;38.20;;;;;;5135966;27;20118;-75
2022/02/14 08:03:58;;;;;;;5.95;2.08;;;7.80;38.10;;;;;;5136081;27;20411;-75
2022/02/14 08:06:23;;;;;;;8.05;3.35;;;7.80;38.00;;;;;;5137417;27;20054;-75
2022/02/14 08:08:50;;;;;;;7.65;2.60;;;7.90;37.70;;;;;;5137898;27;20024;-75
2022/02/14 08:11:17;;;;;;;10.73;3.25;;;8.00;37.40;;;;;;5135517;27;20031;-75
2022/02/14 08:13:43;;;;;;;6.82;2.58;;;8.10;37.80;;;;;;5135699;27;20114;-75
2022/02/14 08:16:09;;;;;;;10.43;2.20;;;8.20;37.70;;;;;;5135621;27;20179;-75
2022/02/14 08:18:36;;;;;;;7.00;2.40;;;8.20;38.40;;;;;;5135666;27;20038;-75
2022/02/14 08:21:02;;;;;;;6.82;2.25;;;8.30;38.10;;;;;;5135549;27;20096;-75
2022/02/14 08:23:28;;;;;;;7.07;2.10;;;8.40;37.60;;;;;;5135677;27;20432;-75
2022/02/14 08:25:54;;;;;;;7.75;2.47;;;8.40;38.10;;;;;;5135394;27;20042;-75
2022/02/14 08:28:20;;;;;;;8.73;2.42;;;8.50;37.50;;;;;;5135738;27;20025;-76
2022/02/14 08:30:45;;;;;;;6.03;2.15;;;8.50;37.50;;;;;;5135216;27;20436;-76
2022/02/14 08:33:11;;;;;;;14.02;2.70;;;8.60;37.70;;;;;;5135525;27;20030;-76
2022/02/14 08:35:38;;;;;;;6.53;2.22;;;8.70;37.60;;;;;;5117058;27;20475;-74
2022/02/14 08:38:05;;;;;;;4.78;2.17;;;8.70;37.30;;;;;;5135513;27;20109;-76
2022/02/14 08:40:31;;;;;;;5.90;2.60;;;8.80;37.00;;;;;;5135217;27;20524;-75
2022/02/14 08:42:58;;;;;;;5.70;2.30;;;8.90;36.70;;;;;;5135091;27;20031;-75
2022/02/14 08:45:24;;;;;;;5.05;2.10;;;8.90;36.60;;;;;;5135170;27;20083;-75
2022/02/14 08:47:50;;;;;;;5.82;2.13;;;8.90;36.40;;;;;;5134898;27;20467;-76
2022/02/14 08:50:16;;;;;;;7.18;1.98;;;9.00;36.40;;;;;;5135168;27;20164;-76
2022/02/14 08:52:42;;;;;;;7.85;2.25;;;9.20;36.50;;;;;;5116639;27;20497;-74
2022/02/14 08:55:08;;;;;;;5.75;1.92;;;9.30;36.20;;;;;;5135622;27;20034;-83
2022/02/14 08:57:34;;;;;;;5.80;1.92;;;9.60;37.90;;;;;;5135528;27;20022;-80
2022/02/14 09:00:00;;;;;;;8.65;3.15;;;9.60;36.00;;;;;;5134843;27;20074;-82
2022/02/14 09:02:26;;;;;;;10.50;2.88;;;9.70;35.30;;;;;;5134569;27;20034;-79
2022/02/14 09:04:51;;;;;;;5.50;2.00;;;9.90;35.10;;;;;;5134880;27;20053;-81
2022/02/14 09:07:17;;;;;;;4.70;2.05;;;10.10;34.80;;;;;;5134748;27;20031;-81
2022/02/14 09:09:43;;;;;;;7.65;1.98;;;10.30;34.20;;;;;;5136472;27;20023;-86
2022/02/14 09:12:09;;;;;;;5.72;2.17;;;10.40;34.50;;;;;;5119993;27;20416;-80
2022/02/14 09:14:34;;;;;;;8.55;2.38;;;10.50;35.50;;;;;;5135942;27;20047;-82
2022/02/14 09:17:00;;;;;;;12.05;2.50;;;10.30;35.80;;;;;;5134654;27;20050;-83
2022/02/14 09:19:25;;;;;;;5.85;1.98;;;10.40;35.80;;;;;;5134481;27;20042;-81
2022/02/14 09:21:52;;;;;;;9.70;2.17;;;10.30;35.50;;;;;;5134834;27;20137;-83
2022/02/14 09:24:17;;;;;;;6.47;2.42;;;10.40;35.60;;;;;;5135637;27;20050;-83
2022/02/14 09:26:45;;;;;;;6.05;1.90;;;10.50;35.80;;;;;;5134792;27;20058;-83
2022/02/14 09:29:12;;;;;;;8.10;2.70;;;10.50;35.70;;;;;;5116993;27;20035;-82
2022/02/14 09:31:39;;;;;;;5.47;2.10;;;10.60;35.80;;;;;;5138900;27;20052;-85
2022/02/14 09:34:05;;;;;;;10.88;1.90;;;10.60;35.50;;;;;;5134562;27;20023;-82
2022/02/14 09:36:32;;;;;;;8.15;1.85;;;10.70;36.00;;;;;;5134584;27;20053;-84
2022/02/14 09:38:58;;;;;;;4.53;1.80;;;10.90;36.20;;;;;;5134388;27;20440;-80
2022/02/14 09:41:28;;;;;;;8.25;2.03;;;11.00;36.30;;;;;;5115382;27;20122;-80
2022/02/14 09:43:54;;;;;;;6.78;2.13;;;11.20;36.00;;;;;;5133747;27;20030;-82
2022/02/14 09:46:21;;;;;;;3.70;1.60;;;11.20;36.60;;;;;;5134255;27;20102;-83
2022/02/14 09:48:47;;;;;;;3.40;1.80;;;11.10;36.80;;;;;;5134137;27;20454;-83
2022/02/14 09:51:14;;;;;;;5.40;1.50;;;11.20;37.10;;;;;;5133753;27;20047;-81
2022/02/14 09:53:42;;;;;;;5.90;1.48;;;11.10;37.60;;;;;;5134194;27;20094;-82
2022/02/14 09:56:11;;;;;;;6.60;2.17;;;11.10;38.20;;;;;;5133880;27;20019;-81
2022/02/14 09:58:37;;;;;;;4.65;1.50;;;11.10;38.80;;;;;;5133728;27;20034;-80
2022/02/14 10:01:03;;;;;;;4.53;1.70;;;11.00;39.10;;;;;;5133805;27;20031;-80
2022/02/14 10:03:29;;;;;;;7.38;1.58;;;11.10;40.00;;;;;;5133922;27;20030;-81
2022/02/14 10:06:00;;;;;;;5.95;1.88;;;11.30;40.20;;;;;;5133914;27;20183;-81
2022/02/14 10:08:32;;;;;;;5.00;1.45;;;11.50;40.60;;;;;;5133911;27;20030;-79
2022/02/14 10:11:18;;;;;;;10.02;1.65;;;11.70;40.20;;;;;;5133651;27;20155;-80
2022/02/14 10:13:50;;;;;;;5.13;1.73;;;11.80;40.30;;;;;;5133490;27;20015;-80
2022/02/14 10:16:16;;;;;;;6.35;1.50;;;11.70;40.50;;;;;;5133447;27;20070;-79
2022/02/14 10:18:42;;;;;;;10.02;1.92;;;11.60;40.90;;;;;;5133317;28;20027;-83
2022/02/14 10:21:28;;;;;;;3.90;1.70;;;11.60;40.50;;;;;;5133360;28;20080;-74
2022/02/14 10:24:04;;;;;;;4.55;1.73;;;11.40;40.40;;;;;;5133547;28;20019;-75
2022/02/14 10:26:45;;;;;;;5.82;1.70;;;11.30;40.30;;;;;;5133726;28;20016;-74
2022/02/14 10:29:27;;;;;;;4.60;1.45;;;11.40;41.00;;;;;;5133712;28;20015;-75
2022/02/14 10:32:16;;;;;;;4.57;1.75;;;11.20;41.30;;;;;;5135239;28;20050;-74
2022/02/14 10:34:44;;;;;;;3.28;1.40;;;11.00;41.70;;;;;;5133741;28;20028;-74
2022/02/14 10:37:12;;;;;;;7.22;1.63;;;10.90;43.10;;;;;;5133729;28;20022;-75
2022/02/14 10:39:39;;;;;;;7.88;2.30;;;11.00;43.10;;;;;;5133508;28;20038;-74
2022/02/14 10:42:13;;;;;;;6.85;1.73;;;10.90;44.40;;;;;;5133405;28;20027;-74
2022/02/14 10:45:08;;;;;;;4.45;1.85;;;10.90;43.70;;;;;;5133487;28;20079;-74
2022/02/14 10:47:39;;;;;;;8.57;1.65;;;10.80;44.30;;;;;;5133615;27;20095;-74
2022/02/14 10:50:21;;;;;;;4.88;1.60;;;10.90;44.70;;;;;;5137354;27;20435;-75
2022/02/14 10:52:56;;;;;;;5.35;1.45;;;11.10;44.80;;;;;;5137476;27;20027;-74
2022/02/14 10:55:31;;;;;;;4.28;1.40;;;11.30;45.50;;;;;;5137233;27;20430;-74
2022/02/14 10:57:58;;;;;;;5.38;1.65;;;11.30;45.50;;;;;;5137517;27;20023;-72
2022/02/14 11:00:29;;;;;;;8.02;1.23;;;11.30;46.20;;;;;;5137461;27;20119;-73
2022/02/14 11:02:58;;;;;;;6.95;1.50;;;11.40;47.10;;;;;;5137115;27;20019;-75
2022/02/14 11:05:26;;;;;;;2.42;1.23;;;11.60;46.90;;;;;;5118206;27;20035;-75
2022/02/14 11:07:53;;;;;;;5.45;1.65;;;11.70;46.50;;;;;;5137102;27;20065;-74
2022/02/14 11:10:20;;;;;;;4.88;1.60;;;11.50;46.30;;;;;;5136953;27;20019;-73
2022/02/14 11:13:00;;;;;;;2.75;1.40;;;11.40;47.30;;;;;;5137160;27;20048;-73
2022/02/14 11:15:34;;;;;;;2.90;1.33;;;11.60;47.20;;;;;;5136740;27;20503;-74
2022/02/14 11:18:08;;;;;;;4.53;1.70;;;11.90;46.30;;;;;;5118336;27;20034;-73
2022/02/14 11:20:34;;;;;;;3.85;1.27;;;12.10;45.60;;;;;;5118140;27;20094;-74
2022/02/14 11:23:04;;;;;;;3.35;1.35;;;12.20;45.20;;;;;;5136790;27;20106;-75
2022/02/14 11:25:48;;;;;;;9.98;1.92;;;12.20;45.10;;;;;;5136675;27;20075;-74
2022/02/14 11:28:23;;;;;;;7.07;1.40;;;12.20;45.60;;;;;;5117927;27;20027;-74
2022/02/14 11:31:05;;;;;;;4.20;1.65;;;12.10;46.40;;;;;;5136593;27;20076;-75
2022/02/14 11:33:31;;;;;;;3.85;1.42;;;11.80;47.80;;;;;;5136538;27;20027;-74
2022/02/14 11:35:59;;;;;;;1.90;1.05;;;11.80;48.90;;;;;;5136452;27;20095;-77
2022/02/14 11:38:43;;;;;;;3.40;1.33;;;11.60;49.60;;;;;;5136574;27;20019;-75
2022/02/14 11:41:40;;;;;;;4.93;1.40;;;11.60;50.40;;;;;;5136284;27;20074;-75
2022/02/14 11:44:14;;;;;;;3.45;1.55;;;11.50;50.80;;;;;;5116069;27;20437;-75
2022/02/14 11:46:44;;;;;;;2.47;1.02;;;11.70;50.80;;;;;;5136184;27;20043;-75
2022/02/14 11:49:10;;;;;;;4.18;1.65;;;11.90;49.90;;;;;;5117238;27;20110;-78
2022/02/14 11:51:38;;;;;;;5.47;0.90;;;12.00;49.50;;;;;;5135129;27;20122;-74
2022/02/14 11:54:05;;;;;;;2.70;1.15;;;12.00;49.80;;;;;;5135415;27;20045;-75
2022/02/14 11:56:32;;;;;;;2.78;1.20;;;12.30;49.20;;;;;;5134729;27;20029;-73
2022/02/14 11:59:02;;;;;;;3.97;0.95;;;12.20;48.80;;;;;;5134754;27;20027;-73
2022/02/14 12:01:34;;;;;;;4.80;1.30;;;11.90;48.90;;;;;;5135437;27;20023;-73
2022/02/14 12:04:37;;;;;;;4.20;1.08;;;11.60;50.10;;;;;;5135111;27;20020;-75
2022/02/14 12:07:20;;;;;;;3.10;0.95;;;11.90;50.40;;;;;;5135292;27;20434;-75
2022/02/14 12:10:00;;;;;;;4.97;0.90;;;12.40;48.90;;;;;;5135250;27;20081;-75
2022/02/14 12:12:44;;;;;;;2.67;0.90;;;12.90;47.90;;;;;;5135412;27;20035;-75
2022/02/14 12:20:43;;;;;;;2.13;1.05;;;13.50;45.50;;;;;;5135525;27;20046;-75
2022/02/14 12:23:09;;;;;;;5.05;1.10;;;13.40;45.50;;;;;;5134874;27;20080;-76
2022/02/14 12:25:46;;;;;;;6.20;1.05;;;12.70;47.10;;;;;;5128307;27;20019;-75
2022/02/14 12:28:11;;;;;;;2.70;0.88;;;12.30;49.70;;;;;;5134934;27;20031;-76
2022/02/14 12:30:41;;;;;;;2.33;0.93;;;11.90;49.80;;;;;;5134410;27;20031;-75
2022/02/14 12:33:08;;;;;;;1.45;0.60;;;11.70;51.60;;;;;;5116496;27;20449;-74
2022/02/14 12:35:55;;;;;;;1.55;0.90;;;11.70;51.90;;;;;;5135102;27;20030;-76
2022/02/14 12:38:25;;;;;;;2.22;0.80;;;11.40;52.50;;;;;;5134224;27;20076;-76
2022/02/14 12:40:59;;;;;;;1.55;0.55;;;11.30;53.00;;;;;;5135110;27;20075;-76
2022/02/14 12:43:51;;;;;;;2.38;0.82;;;11.60;52.90;;;;;;5117119;27;20023;-75
2022/02/14 12:46:22;;;;;;;1.50;0.50;;;12.00;52.10;;;;;;5135753;27;20023;-75
2022/02/14 12:48:50;;;;;;;4.63;0.90;;;12.30;50.70;;;;;;5135375;27;20110;-77
2022/02/14 12:51:24;;;;;;;1.88;0.55;;;12.50;50.20;;;;;;5115038;27;20042;-77
2022/02/14 12:54:10;;;;;;;2.95;0.40;;;12.30;50.30;;;;;;5133915;27;20023;-78
2022/02/14 12:56:36;;;;;;;;;;;12.30;50.40;;;;;;5137265;27;20203;-79
2022/02/14 12:59:04;;;;;;;0.63;0.40;;;11.70;51.60;;;;;;5154488;27;19987;-78
2022/02/14 13:01:33;;;;;;;1.05;0.60;;;11.50;52.60;;;;;;5140882;27;20026;-75